Time;durP1;ratioP1;P1;durP2;ratioP2;P2;SDS_P1;SDS_P2;PMS_P1;PMS_P2;Temp;Humidity;BMP_temperature;BMP_pressure;BME280_temperature;BME280_humidity;BME280_pressure;Samples;Min_cycle;Max_cycle;Signal;HPM_P1;HPM_P2
2022/11/01 00:02:12;;;;;;;0.10;0.10;;;12.90;99.90;;;;;;5029335;28;20234;-90
2022/11/01 00:04:37;;;;;;;0.10;0.10;;;12.90;99.90;;;;;;5032161;28;20789;-89
2022/11/01 00:07:03;;;;;;;0.10;0.10;;;12.90;99.90;;;;;;5027483;28;20753;-92
2022/11/01 00:09:29;;;;;;;0.10;0.10;;;12.90;99.90;;;;;;5007106;28;20680;-89
2022/11/01 00:11:54;;;;;;;0.10;0.10;;;13.00;99.90;;;;;;5028409;28;20188;-89
2022/11/01 00:14:20;;;;;;;0.20;0.20;;;13.00;99.90;;;;;;5027857;28;20279;-89
2022/11/01 00:16:46;;;;;;;0.10;0.10;;;13.00;99.90;;;;;;5017876;28;20206;-90
2022/11/01 00:19:11;;;;;;;0.10;0.10;;;13.00;99.90;;;;;;5035477;28;20655;-90
2022/11/01 00:21:37;;;;;;;0.10;0.10;;;13.00;99.90;;;;;;5013728;28;20195;-88
2022/11/01 00:24:03;;;;;;;0.20;0.20;;;13.00;99.90;;;;;;5026111;28;20538;-88
2022/11/01 00:26:28;;;;;;;0.10;0.10;;;13.00;99.90;;;;;;5026139;28;20234;-90
2022/11/01 00:28:54;;;;;;;0.10;0.10;;;13.00;99.90;;;;;;5023153;28;20240;-90
2022/11/01 00:31:20;;;;;;;0.10;0.10;;;13.00;99.90;;;;;;5010707;28;20197;-90
2022/11/01 00:33:46;;;;;;;0.10;0.10;;;13.00;99.90;;;;;;5027486;28;20187;-88
2022/11/01 00:36:12;;;;;;;0.10;0.10;;;13.00;99.90;;;;;;5032262;28;20487;-89
2022/11/01 00:38:37;;;;;;;0.10;0.10;;;13.00;99.90;;;;;;5031841;28;20242;-91
2022/11/01 00:41:03;;;;;;;0.10;0.10;;;13.00;99.90;;;;;;5049226;28;20202;-92
2022/11/01 00:43:30;;;;;;;0.10;0.10;;;13.00;99.90;;;;;;5027703;28;20641;-90
2022/11/01 00:45:56;;;;;;;0.10;0.10;;;13.00;99.90;;;;;;5016130;28;20456;-89
2022/11/01 00:48:22;;;;;;;0.20;0.20;;;13.00;99.90;;;;;;5025953;28;20493;-89
2022/11/01 00:50:47;;;;;;;0.10;0.10;;;13.00;99.90;;;;;;5029373;28;20449;-91
2022/11/01 00:53:13;;;;;;;0.10;0.10;;;13.00;99.90;;;;;;5031124;28;20647;-89
2022/11/01 00:55:39;;;;;;;0.10;0.10;;;13.00;99.90;;;;;;5029130;28;20171;-89
2022/11/01 00:58:06;;;;;;;0.10;0.10;;;13.00;99.90;;;;;;5023313;28;20198;-89
2022/11/01 01:00:31;;;;;;;0.20;0.20;;;13.00;99.90;;;;;;5028864;28;20454;-89
2022/11/01 01:02:57;;;;;;;0.10;0.10;;;13.00;99.90;;;;;;5021939;28;20447;-91
2022/11/01 01:05:22;;;;;;;0.10;0.10;;;13.00;99.90;;;;;;5020985;28;20651;-88
2022/11/01 01:07:48;;;;;;;0.10;0.10;;;13.00;99.90;;;;;;5025232;28;20234;-90
2022/11/01 01:10:13;;;;;;;0.10;0.10;;;13.00;99.90;;;;;;5031428;28;20179;-91
2022/11/01 01:12:39;;;;;;;0.10;0.10;;;13.00;99.90;;;;;;5045334;28;20556;-92
2022/11/01 01:15:05;;;;;;;0.10;0.10;;;13.00;99.90;;;;;;5027911;28;20242;-88
2022/11/01 01:17:31;;;;;;;0.10;0.10;;;13.10;99.90;;;;;;5028243;28;20663;-89
2022/11/01 01:19:57;;;;;;;0.10;0.10;;;13.00;99.90;;;;;;5029114;28;20474;-90
2022/11/01 01:22:22;;;;;;;0.10;0.10;;;13.00;99.90;;;;;;5013260;28;20497;-90
2022/11/01 01:24:48;;;;;;;0.10;0.10;;;13.10;99.90;;;;;;5022999;28;20191;-89
2022/11/01 01:27:14;;;;;;;0.10;0.10;;;13.00;99.90;;;;;;5028689;28;20695;-91
2022/11/01 01:29:44;;;;;;;0.10;0.10;;;13.00;99.90;;;;;;5029884;28;20844;-89
2022/11/01 01:32:18;;;;;;;0.10;0.10;;;13.00;99.90;;;;;;5022806;28;20444;-91
2022/11/01 01:34:43;;;;;;;0.10;0.10;;;13.00;99.90;;;;;;5012240;28;21021;-91
2022/11/01 01:37:10;;;;;;;0.10;0.10;;;13.00;99.90;;;;;;5026659;28;20469;-88
2022/11/01 01:39:35;;;;;;;0.10;0.10;;;13.00;99.90;;;;;;4996692;28;20873;-89
2022/11/01 01:42:12;;;;;;;0.10;0.10;;;13.00;99.90;;;;;;5002877;28;20497;-91
2022/11/01 01:44:49;;;;;;;0.10;0.10;;;13.00;99.90;;;;;;4997965;28;20193;-89
2022/11/01 01:47:20;;;;;;;0.10;0.10;;;13.00;99.90;;;;;;4996517;28;20533;-87
2022/11/01 01:49:47;;;;;;;0.10;0.10;;;13.00;99.90;;;;;;5017766;28;20450;-88
2022/11/01 01:52:13;;;;;;;0.20;0.20;;;13.00;99.90;;;;;;5004993;28;20459;-88
2022/11/01 01:54:39;;;;;;;0.10;0.10;;;12.90;99.90;;;;;;5023522;28;20774;-88
2022/11/01 01:57:05;;;;;;;0.10;0.10;;;13.00;99.90;;;;;;5010087;28;20497;-90
2022/11/01 01:59:31;;;;;;;0.10;0.10;;;13.00;99.90;;;;;;5021569;28;20254;-88
2022/11/01 02:01:57;;;;;;;0.20;0.20;;;13.00;99.90;;;;;;4993403;28;20253;-88
2022/11/01 02:04:45;;;;;;;0.10;0.10;;;13.00;99.90;;;;;;5004751;28;20983;-89
2022/11/01 02:07:11;;;;;;;0.10;0.10;;;13.00;99.90;;;;;;4994937;28;20491;-88
2022/11/01 02:09:37;;;;;;;0.10;0.10;;;13.00;99.90;;;;;;4993748;28;20458;-90
2022/11/01 02:12:03;;;;;;;0.10;0.10;;;13.00;99.90;;;;;;4999198;28;20451;-88
2022/11/01 02:14:30;;;;;;;0.10;0.10;;;13.00;99.90;;;;;;5004104;28;20458;-90
2022/11/01 02:17:20;;;;;;;0.10;0.10;;;13.00;99.90;;;;;;5007255;28;20192;-88
2022/11/01 02:20:17;;;;;;;0.10;0.10;;;13.00;99.90;;;;;;4988494;28;21198;-89
2022/11/01 02:23:07;;;;;;;0.10;0.10;;;13.00;99.90;;;;;;5015000;28;20441;-89
2022/11/01 02:26:06;;;;;;;0.10;0.10;;;13.00;99.90;;;;;;5002752;28;20497;-90
2022/11/01 02:28:54;;;;;;;0.10;0.10;;;13.00;99.90;;;;;;5029099;28;20465;-89
2022/11/01 02:31:25;;;;;;;0.10;0.10;;;12.90;99.90;;;;;;4998197;28;20443;-93
2022/11/01 02:34:06;;;;;;;0.10;0.10;;;12.90;99.90;;;;;;5009615;28;20435;-90
2022/11/01 02:37:17;;;;;;;0.10;0.10;;;12.90;99.90;;;;;;4996746;28;20493;-88
2022/11/01 02:39:49;;;;;;;0.20;0.20;;;13.00;99.90;;;;;;4986401;28;20458;-92
2022/11/01 02:42:22;;;;;;;0.10;0.10;;;13.00;99.90;;;;;;5028805;28;20449;-90
2022/11/01 02:44:54;;;;;;;0.10;0.10;;;12.90;99.90;;;;;;5030068;28;20472;-91
2022/11/01 02:47:19;;;;;;;0.20;0.20;;;12.90;99.90;;;;;;5031017;28;20477;-89
2022/11/01 02:49:48;;;;;;;0.10;0.10;;;12.90;99.90;;;;;;5030871;28;20464;-89
2022/11/01 02:52:22;;;;;;;0.20;0.20;;;12.90;99.90;;;;;;5030037;28;20279;-88
2022/11/01 02:54:52;;;;;;;0.10;0.10;;;13.00;99.90;;;;;;5028746;28;20426;-90
2022/11/01 02:57:38;;;;;;;0.10;0.10;;;12.90;99.90;;;;;;5006983;28;20458;-89
2022/11/01 03:00:19;;;;;;;0.10;0.10;;;13.00;99.90;;;;;;5015763;28;20442;-90
2022/11/01 03:02:45;;;;;;;0.10;0.10;;;13.00;99.90;;;;;;5022763;28;20453;-92
2022/11/01 03:05:30;;;;;;;0.10;0.10;;;13.00;99.90;;;;;;5013410;28;20434;-90
2022/11/01 03:08:24;;;;;;;0.20;0.20;;;13.00;99.90;;;;;;5033296;28;20226;-91
2022/11/01 03:11:14;;;;;;;0.10;0.10;;;13.00;99.90;;;;;;5026002;28;20537;-89
2022/11/01 03:14:15;;;;;;;0.20;0.20;;;13.00;99.90;;;;;;5022218;28;20455;-87
2022/11/01 03:16:57;;;;;;;0.10;0.10;;;13.00;99.90;;;;;;5024639;28;20473;-89
2022/11/01 03:19:27;;;;;;;0.10;0.10;;;13.00;99.90;;;;;;5021887;28;20461;-90
2022/11/01 03:22:02;;;;;;;0.10;0.10;;;13.00;99.90;;;;;;5030981;28;20438;-90
2022/11/01 03:24:47;;;;;;;0.10;0.10;;;13.00;99.90;;;;;;5053534;28;20881;-90
2022/11/01 03:27:31;;;;;;;0.10;0.10;;;13.00;99.90;;;;;;5044892;28;20481;-89
2022/11/01 03:30:05;;;;;;;0.10;0.10;;;13.00;99.90;;;;;;5050491;28;20441;-90
2022/11/01 03:32:38;;;;;;;0.10;0.10;;;13.00;99.90;;;;;;5024897;28;20445;-88
2022/11/01 03:35:05;;;;;;;0.10;0.10;;;13.00;99.90;;;;;;5031351;28;20839;-90
2022/11/01 03:37:33;;;;;;;0.10;0.10;;;13.00;99.90;;;;;;5034842;28;20482;-90
2022/11/01 03:40:03;;;;;;;0.10;0.10;;;13.00;99.90;;;;;;5012936;28;20434;-91
2022/11/01 03:42:29;;;;;;;0.10;0.10;;;13.00;99.90;;;;;;5044537;28;20436;-90
2022/11/01 03:45:01;;;;;;;0.10;0.10;;;13.00;99.90;;;;;;5034721;28;20438;-91
2022/11/01 03:47:28;;;;;;;0.10;0.10;;;13.00;99.90;;;;;;5022702;28;21198;-88
2022/11/01 03:50:29;;;;;;;0.10;0.10;;;13.00;99.90;;;;;;5028889;28;20450;-91
2022/11/01 03:52:55;;;;;;;0.10;0.10;;;13.00;99.90;;;;;;4950910;28;20451;-90
2022/11/01 03:55:22;;;;;;;0.10;0.10;;;13.00;99.90;;;;;;5009815;28;20446;-89
2022/11/01 03:57:49;;;;;;;0.10;0.10;;;13.00;99.90;;;;;;5030625;28;20183;-90
2022/11/01 04:00:20;;;;;;;0.10;0.10;;;13.00;99.90;;;;;;5018230;28;20481;-89
2022/11/01 04:02:50;;;;;;;0.10;0.10;;;13.10;99.90;;;;;;5016731;28;20897;-91
2022/11/01 04:05:16;;;;;;;0.10;0.10;;;13.00;99.90;;;;;;5019196;28;20542;-90
2022/11/01 04:07:43;;;;;;;0.10;0.10;;;13.00;99.90;;;;;;5020035;28;20523;-91
2022/11/01 04:10:09;;;;;;;0.10;0.10;;;13.00;99.90;;;;;;5013540;28;20443;-91
2022/11/01 04:12:35;;;;;;;0.10;0.10;;;13.00;99.90;;;;;;5037114;28;20441;-91
2022/11/01 04:20:31;;;;;;;0.10;0.10;;;13.00;99.90;;;;;;5025250;28;20560;-90
2022/11/01 04:23:04;;;;;;;0.10;0.10;;;13.00;99.90;;;;;;5036807;28;20815;-89
2022/11/01 04:25:30;;;;;;;0.10;0.10;;;13.10;99.90;;;;;;5006782;28;20442;-90
2022/11/01 04:27:57;;;;;;;0.20;0.20;;;13.10;99.90;;;;;;5028425;28;20517;-91
2022/11/01 04:30:24;;;;;;;0.10;0.10;;;13.10;99.90;;;;;;5027767;28;20440;-90
2022/11/01 04:32:49;;;;;;;0.10;0.10;;;13.00;99.90;;;;;;5021053;28;20522;-88
2022/11/01 04:35:15;;;;;;;0.10;0.10;;;13.10;99.90;;;;;;5029575;28;20526;-87
2022/11/01 04:37:40;;;;;;;0.20;0.20;;;13.10;99.90;;;;;;5020292;28;20259;-89
2022/11/01 04:40:06;;;;;;;0.10;0.10;;;13.10;99.90;;;;;;5002673;28;20203;-91
2022/11/01 04:42:36;;;;;;;0.10;0.10;;;13.10;99.90;;;;;;5013338;28;20682;-89
2022/11/01 04:45:03;;;;;;;0.10;0.10;;;13.10;99.90;;;;;;5027382;28;20449;-88
2022/11/01 04:47:29;;;;;;;0.10;0.10;;;13.10;99.90;;;;;;5026786;28;20590;-88
2022/11/01 04:49:54;;;;;;;0.10;0.10;;;13.10;99.90;;;;;;5022883;28;20522;-88
2022/11/01 04:52:20;;;;;;;0.10;0.10;;;13.10;99.90;;;;;;5025847;28;20278;-90
2022/11/01 04:54:46;;;;;;;0.10;0.10;;;13.10;99.90;;;;;;5016987;28;20192;-87
2022/11/01 04:57:21;;;;;;;0.10;0.10;;;13.10;99.90;;;;;;5007090;28;20651;-87
2022/11/01 04:59:48;;;;;;;0.10;0.10;;;13.10;99.90;;;;;;5004186;28;20191;-90
2022/11/01 05:02:13;;;;;;;0.10;0.10;;;13.10;99.90;;;;;;5023898;28;20937;-88
2022/11/01 05:04:39;;;;;;;0.10;0.10;;;13.10;99.90;;;;;;5026389;28;20454;-88
2022/11/01 05:07:04;;;;;;;0.10;0.10;;;13.10;99.90;;;;;;5002057;28;20219;-89
2022/11/01 05:09:30;;;;;;;0.10;0.10;;;13.10;99.90;;;;;;5014375;28;20195;-89
2022/11/01 05:11:55;;;;;;;0.10;0.10;;;13.10;99.90;;;;;;5011199;28;20828;-88
2022/11/01 05:14:21;;;;;;;0.10;0.10;;;13.10;99.90;;;;;;5035512;28;20208;-89
2022/11/01 05:16:46;;;;;;;0.10;0.10;;;13.10;99.90;;;;;;5004229;28;20668;-90
2022/11/01 05:19:12;;;;;;;0.10;0.10;;;13.10;99.90;;;;;;5026754;28;20196;-89
2022/11/01 05:21:37;;;;;;;0.10;0.10;;;13.10;99.90;;;;;;5022794;28;20282;-87
2022/11/01 05:24:03;;;;;;;0.10;0.10;;;13.10;99.90;;;;;;5008478;28;20188;-89
2022/11/01 05:26:28;;;;;;;0.10;0.10;;;13.10;99.90;;;;;;5028831;28;20639;-88
2022/11/01 05:28:54;;;;;;;0.10;0.10;;;13.10;99.90;;;;;;5018266;28;20660;-88
2022/11/01 05:31:19;;;;;;;0.10;0.10;;;13.10;99.90;;;;;;5009162;28;20175;-89
2022/11/01 05:33:45;;;;;;;0.10;0.10;;;13.10;99.90;;;;;;5027855;28;20787;-88
2022/11/01 05:36:10;;;;;;;0.10;0.10;;;13.10;99.90;;;;;;5042191;28;20271;-88
2022/11/01 05:38:36;;;;;;;0.10;0.10;;;13.10;99.90;;;;;;5002179;28;20726;-89
2022/11/01 05:41:02;;;;;;;0.20;0.20;;;13.10;99.90;;;;;;5007450;28;20183;-88
2022/11/01 05:43:28;;;;;;;0.10;0.10;;;13.10;99.90;;;;;;5008357;28;20527;-88
2022/11/01 05:45:53;;;;;;;0.10;0.10;;;13.10;99.90;;;;;;5006783;28;20455;-89
2022/11/01 05:48:19;;;;;;;0.10;0.10;;;13.10;99.90;;;;;;5021893;28;20219;-89
2022/11/01 05:50:45;;;;;;;0.10;0.10;;;13.10;99.90;;;;;;5011941;28;20309;-88
2022/11/01 05:53:11;;;;;;;0.10;0.10;;;13.00;99.90;;;;;;5029468;28;20558;-87
2022/11/01 05:55:38;;;;;;;0.20;0.20;;;13.00;99.90;;;;;;5026613;28;20434;-87
2022/11/01 05:58:04;;;;;;;0.10;0.10;;;13.00;99.90;;;;;;5026908;28;20188;-88
2022/11/01 06:00:30;;;;;;;0.10;0.10;;;13.00;99.90;;;;;;5019086;28;20540;-89
2022/11/01 06:02:59;;;;;;;0.10;0.10;;;13.00;99.90;;;;;;5005210;28;20529;-90
2022/11/01 06:05:26;;;;;;;0.10;0.10;;;13.00;99.90;;;;;;5009973;28;20430;-89
2022/11/01 06:07:51;;;;;;;0.10;0.10;;;13.00;99.90;;;;;;5018398;28;20487;-88
2022/11/01 06:10:17;;;;;;;0.10;0.10;;;13.00;99.90;;;;;;5020863;28;20806;-88
2022/11/01 06:12:42;;;;;;;0.10;0.10;;;13.00;99.90;;;;;;5039187;28;20563;-88
2022/11/01 06:15:08;;;;;;;0.10;0.10;;;13.00;99.90;;;;;;5006713;28;20276;-87
2022/11/01 06:17:34;;;;;;;0.10;0.10;;;13.00;99.90;;;;;;5023283;28;20279;-87
2022/11/01 06:19:59;;;;;;;0.10;0.10;;;13.00;99.90;;;;;;5028349;28;20505;-89
2022/11/01 06:22:25;;;;;;;0.10;0.10;;;13.00;99.90;;;;;;5026083;28;20588;-86
2022/11/01 06:24:51;;;;;;;0.10;0.10;;;13.00;99.90;;;;;;5029079;28;20176;-88
2022/11/01 06:27:16;;;;;;;0.10;0.10;;;13.00;99.90;;;;;;5027193;28;20281;-88
2022/11/01 06:29:42;;;;;;;0.10;0.10;;;13.00;99.90;;;;;;5019750;28;20191;-89
2022/11/01 06:32:07;;;;;;;0.10;0.10;;;13.00;99.90;;;;;;5019090;28;20226;-88
2022/11/01 06:34:33;;;;;;;0.10;0.10;;;13.00;99.90;;;;;;5000543;28;20198;-87
2022/11/01 06:36:58;;;;;;;0.10;0.10;;;13.00;99.90;;;;;;5027394;28;20278;-86
2022/11/01 06:39:24;;;;;;;0.10;0.10;;;13.00;99.90;;;;;;5027564;28;20200;-90
2022/11/01 06:41:50;;;;;;;0.10;0.10;;;13.00;99.90;;;;;;5027698;28;20636;-91
2022/11/01 06:44:16;;;;;;;0.10;0.10;;;13.00;99.90;;;;;;5026524;28;20207;-89
2022/11/01 06:46:43;;;;;;;0.10;0.10;;;13.00;99.90;;;;;;5021456;28;20998;-90
2022/11/01 06:49:08;;;;;;;0.10;0.10;;;13.00;99.90;;;;;;5024515;28;20456;-88
2022/11/01 06:51:34;;;;;;;0.10;0.10;;;13.10;99.90;;;;;;5025179;28;20187;-89
2022/11/01 06:53:59;;;;;;;0.10;0.10;;;13.10;99.90;;;;;;5028306;28;20210;-91
2022/11/01 06:56:25;;;;;;;0.10;0.10;;;13.10;99.90;;;;;;5020151;28;20187;-91
2022/11/01 06:58:50;;;;;;;0.10;0.10;;;13.10;99.90;;;;;;5029098;28;20228;-88
2022/11/01 07:01:21;;;;;;;0.10;0.10;;;13.10;99.90;;;;;;5028290;28;20195;-92
2022/11/01 07:03:50;;;;;;;0.10;0.10;;;13.10;99.90;;;;;;5027876;28;20225;-88
2022/11/01 07:06:17;;;;;;;0.10;0.10;;;13.10;99.90;;;;;;5026895;28;20543;-88
2022/11/01 07:08:42;;;;;;;0.10;0.10;;;13.20;99.90;;;;;;5026964;28;20454;-89
2022/11/01 07:11:08;;;;;;;0.10;0.10;;;13.10;99.90;;;;;;5031434;28;20783;-91
2022/11/01 07:13:36;;;;;;;0.10;0.10;;;13.10;99.90;;;;;;5019296;28;20198;-91
2022/11/01 07:16:03;;;;;;;0.10;0.10;;;13.20;99.90;;;;;;5020330;28;20719;-89
2022/11/01 07:18:29;;;;;;;0.10;0.10;;;13.20;99.90;;;;;;5010314;28;20465;-89
2022/11/01 07:20:55;;;;;;;0.10;0.10;;;13.20;99.90;;;;;;5020524;28;20426;-89
2022/11/01 07:23:21;;;;;;;0.10;0.10;;;13.20;99.90;;;;;;5029945;28;20446;-88
2022/11/01 07:25:51;;;;;;;0.10;0.10;;;13.20;99.90;;;;;;5027149;28;20527;-89
2022/11/01 07:28:17;;;;;;;0.10;0.10;;;13.20;99.90;;;;;;5026410;28;20263;-89
2022/11/01 07:30:46;;;;;;;0.10;0.10;;;13.20;99.90;;;;;;5004746;28;20501;-87
2022/11/01 07:33:12;;;;;;;0.10;0.10;;;13.20;99.90;;;;;;5009946;28;20454;-89
2022/11/01 07:35:37;;;;;;;0.10;0.10;;;13.30;99.90;;;;;;5018078;28;20453;-88
2022/11/01 07:38:03;;;;;;;0.10;0.10;;;13.30;99.90;;;;;;5020442;28;20564;-89
2022/11/01 07:40:29;;;;;;;0.10;0.10;;;13.40;99.90;;;;;;5011764;28;20195;-89
2022/11/01 07:42:59;;;;;;;0.10;0.10;;;13.40;99.90;;;;;;5037942;28;20266;-88
2022/11/01 07:45:26;;;;;;;0.10;0.10;;;13.40;99.90;;;;;;5024563;28;20644;-91
2022/11/01 07:47:52;;;;;;;0.10;0.10;;;13.50;99.90;;;;;;5031992;28;20490;-87
2022/11/01 07:50:18;;;;;;;0.10;0.10;;;13.40;99.90;;;;;;5013473;28;20970;-87
2022/11/01 07:52:44;;;;;;;0.10;0.10;;;13.40;99.90;;;;;;5030403;28;20482;-86
2022/11/01 07:55:10;;;;;;;0.10;0.10;;;13.50;99.90;;;;;;5030019;28;20813;-88
2022/11/01 07:57:37;;;;;;;0.10;0.10;;;13.50;99.90;;;;;;5022747;28;20454;-87
2022/11/01 08:00:03;;;;;;;0.10;0.10;;;13.50;99.90;;;;;;5019314;28;20635;-85
2022/11/01 08:02:29;;;;;;;0.10;0.10;;;13.50;99.90;;;;;;5018083;28;20919;-90
2022/11/01 08:04:54;;;;;;;0.10;0.10;;;13.50;99.90;;;;;;5012641;28;20438;-89
2022/11/01 08:07:20;;;;;;;0.17;0.17;;;13.50;99.90;;;;;;5023358;28;20243;-88
2022/11/01 08:09:46;;;;;;;0.10;0.10;;;13.50;99.90;;;;;;5039545;28;20275;-89
2022/11/01 08:12:11;;;;;;;0.10;0.10;;;13.60;99.90;;;;;;5036211;28;20266;-90
2022/11/01 08:14:37;;;;;;;0.10;0.10;;;13.60;99.90;;;;;;5038656;28;20439;-88
2022/11/01 08:17:02;;;;;;;0.10;0.10;;;13.60;99.90;;;;;;5032085;28;20187;-88
2022/11/01 08:19:28;;;;;;;0.10;0.10;;;13.60;99.90;;;;;;5028675;28;20200;-87
2022/11/01 08:21:57;;;;;;;0.10;0.10;;;13.60;99.90;;;;;;5023121;28;20219;-87
2022/11/01 08:24:23;;;;;;;0.10;0.10;;;13.60;99.90;;;;;;5030308;28;20286;-87
2022/11/01 08:26:48;;;;;;;0.10;0.10;;;13.70;99.90;;;;;;5028693;28;20578;-87
2022/11/01 08:29:13;;;;;;;0.10;0.10;;;13.80;99.90;;;;;;5008220;28;20179;-87
2022/11/01 08:31:40;;;;;;;0.10;0.10;;;13.80;99.90;;;;;;5028571;28;20194;-86
2022/11/01 08:34:06;;;;;;;0.10;0.10;;;13.80;99.90;;;;;;5022520;28;20207;-87
2022/11/01 08:36:32;;;;;;;0.10;0.10;;;13.80;99.90;;;;;;5028560;28;20532;-88
2022/11/01 08:38:58;;;;;;;0.10;0.10;;;13.90;99.90;;;;;;5006612;28;20223;-87
2022/11/01 08:41:24;;;;;;;0.10;0.10;;;13.90;99.90;;;;;;5002491;28;20445;-86
2022/11/01 08:43:49;;;;;;;0.10;0.10;;;14.00;99.90;;;;;;5008758;28;20233;-86
2022/11/01 08:46:15;;;;;;;0.10;0.10;;;14.00;99.90;;;;;;5035155;28;20678;-84
2022/11/01 08:48:40;;;;;;;0.10;0.10;;;14.10;99.90;;;;;;5024536;28;20314;-87
2022/11/01 08:51:06;;;;;;;0.10;0.10;;;14.10;99.90;;;;;;5031042;28;20284;-87
2022/11/01 08:53:31;;;;;;;0.10;0.10;;;14.10;99.90;;;;;;5023023;28;20622;-88
2022/11/01 08:55:57;;;;;;;0.10;0.10;;;14.20;99.90;;;;;;5031866;28;20192;-87
2022/11/01 08:58:23;;;;;;;0.10;0.10;;;14.20;99.90;;;;;;5024874;28;20219;-86
2022/11/01 09:00:49;;;;;;;0.10;0.10;;;14.20;99.90;;;;;;5028104;28;20233;-89
2022/11/01 09:03:15;;;;;;;0.10;0.10;;;14.30;99.90;;;;;;5025913;28;20462;-86
2022/11/01 09:05:40;;;;;;;0.10;0.10;;;14.30;99.90;;;;;;5023551;28;20233;-89
2022/11/01 09:08:06;;;;;;;0.10;0.10;;;14.30;99.90;;;;;;5027681;28;20521;-87
2022/11/01 09:10:32;;;;;;;0.10;0.10;;;14.40;99.90;;;;;;5030183;28;20690;-88
2022/11/01 09:12:59;;;;;;;0.10;0.10;;;14.40;99.90;;;;;;5028300;28;20470;-89
2022/11/01 09:15:25;;;;;;;0.10;0.10;;;14.40;99.90;;;;;;5021492;28;20537;-87
2022/11/01 09:17:51;;;;;;;0.10;0.10;;;14.40;99.90;;;;;;5004684;28;20498;-89
2022/11/01 09:20:17;;;;;;;0.10;0.10;;;14.50;99.90;;;;;;5028223;28;20445;-88
2022/11/01 09:22:43;;;;;;;0.10;0.10;;;14.60;99.90;;;;;;5008590;28;20453;-86
2022/11/01 09:25:09;;;;;;;0.10;0.10;;;14.70;99.90;;;;;;5032472;28;20233;-86
2022/11/01 09:27:34;;;;;;;0.10;0.10;;;14.90;99.90;;;;;;5024093;28;20250;-88
2022/11/01 09:30:00;;;;;;;0.10;0.10;;;15.00;99.90;;;;;;5030059;28;20531;-88
2022/11/01 09:32:29;;;;;;;0.10;0.10;;;15.30;99.90;;;;;;5007754;28;20187;-89
2022/11/01 09:34:54;;;;;;;0.10;0.10;;;15.50;99.90;;;;;;5030438;28;20176;-89
2022/11/01 09:37:20;;;;;;;0.10;0.10;;;15.50;99.90;;;;;;5026722;28;20474;-86
2022/11/01 09:39:45;;;;;;;0.10;0.10;;;15.80;99.90;;;;;;5010981;28;20184;-86
2022/11/01 09:42:17;;;;;;;0.10;0.10;;;16.10;99.90;;;;;;5025548;28;20195;-88
2022/11/01 09:44:46;;;;;;;0.10;0.10;;;16.30;99.90;;;;;;5021313;28;20184;-89
2022/11/01 09:47:32;;;;;;;0.10;0.10;;;16.60;99.90;;;;;;5018423;28;20534;-90
2022/11/01 09:50:16;;;;;;;0.10;0.10;;;16.80;99.90;;;;;;5020047;28;20455;-92
2022/11/01 09:52:42;;;;;;;0.10;0.10;;;16.90;99.90;;;;;;5002906;28;20447;-90
2022/11/01 09:55:15;;;;;;;0.10;0.10;;;17.00;99.90;;;;;;5025261;28;21010;-92
2022/11/01 09:57:49;;;;;;;0.10;0.10;;;17.10;99.90;;;;;;5030279;28;20211;-89
2022/11/01 10:00:19;;;;;;;0.10;0.10;;;17.10;99.90;;;;;;5010415;28;20442;-90
2022/11/01 10:03:00;;;;;;;0.10;0.10;;;17.20;99.90;;;;;;5026286;28;20449;-90
2022/11/01 10:05:43;;;;;;;0.10;0.10;;;17.10;99.90;;;;;;5027430;28;20498;-92
2022/11/01 10:08:26;;;;;;;0.10;0.10;;;16.90;99.90;;;;;;5029490;28;20577;-91
2022/11/01 10:11:22;;;;;;;0.10;0.10;;;16.80;99.90;;;;;;5013824;28;20442;-92
2022/11/01 10:13:59;;;;;;;0.10;0.10;;;16.60;99.90;;;;;;5024404;28;20537;-90
2022/11/01 10:16:34;;;;;;;0.10;0.10;;;16.40;99.90;;;;;;5029449;28;20449;-93
2022/11/01 10:19:16;;;;;;;0.10;0.10;;;16.30;99.90;;;;;;5016893;28;20445;-91
2022/11/01 10:21:46;;;;;;;0.10;0.10;;;16.30;99.90;;;;;;5011716;28;20464;-92
2022/11/01 10:24:36;;;;;;;0.10;0.10;;;16.20;99.90;;;;;;5032523;28;20509;-88
2022/11/01 10:27:15;;;;;;;0.10;0.10;;;16.20;99.90;;;;;;5018528;28;20465;-90
2022/11/01 10:29:46;;;;;;;0.10;0.10;;;16.10;99.90;;;;;;5001714;28;20450;-89
2022/11/01 10:32:25;;;;;;;0.10;0.10;;;16.10;99.90;;;;;;5026602;28;20561;-89
2022/11/01 10:34:53;;;;;;;0.10;0.10;;;16.10;99.90;;;;;;5025040;28;20531;-89
2022/11/01 10:37:28;;;;;;;0.10;0.10;;;16.10;99.90;;;;;;5015141;28;20492;-88
2022/11/01 10:40:16;;;;;;;0.10;0.10;;;16.00;99.90;;;;;;5033475;28;20480;-91
2022/11/01 10:42:41;;;;;;;0.10;0.10;;;16.00;99.90;;;;;;5021234;28;20436;-88
2022/11/01 10:45:14;;;;;;;0.10;0.10;;;16.00;99.90;;;;;;5027226;28;20443;-89
2022/11/01 10:47:42;;;;;;;0.10;0.10;;;16.10;99.90;;;;;;5031999;28;20220;-91
2022/11/01 10:50:17;;;;;;;0.10;0.10;;;16.10;99.90;;;;;;5024571;28;20435;-88
2022/11/01 10:52:55;;;;;;;0.10;0.10;;;16.40;99.90;;;;;;5032612;28;20461;-90
2022/11/01 10:55:43;;;;;;;0.10;0.10;;;17.30;99.90;;;;;;5032582;28;20434;-94
2022/11/01 10:58:33;;;;;;;0.10;0.10;;;18.10;99.90;;;;;;5014472;28;20426;-91
2022/11/01 11:01:05;;;;;;;0.10;0.10;;;18.90;99.90;;;;;;5034823;28;20434;-92
2022/11/01 11:03:31;;;;;;;0.10;0.00;;;19.30;99.90;;;;;;5014756;28;20437;-94
2022/11/01 11:06:03;;;;;;;0.10;0.10;;;19.90;99.90;;;;;;5030036;28;20469;-90
2022/11/01 11:08:30;;;;;;;0.03;0.00;;;20.40;99.90;;;;;;5019913;28;20483;-92
2022/11/01 11:11:06;;;;;;;0.10;0.00;;;20.90;99.90;;;;;;5029908;28;20939;-94
2022/11/01 11:13:33;;;;;;;0.10;0.00;;;20.10;99.90;;;;;;5030387;28;20450;-92
2022/11/01 11:16:04;;;;;;;0.10;0.00;;;19.40;99.90;;;;;;5005631;28;20509;-93
2022/11/01 11:18:34;;;;;;;0.10;0.00;;;18.50;99.90;;;;;;5003896;28;20501;-91
2022/11/01 11:21:07;;;;;;;0.10;0.10;;;18.00;99.90;;;;;;5010470;28;20434;-91
2022/11/01 11:23:34;;;;;;;0.10;0.10;;;17.60;99.90;;;;;;5038268;28;20962;-91
2022/11/01 11:26:05;;;;;;;0.10;0.10;;;17.50;99.90;;;;;;5021823;28;20439;-91
2022/11/01 11:28:34;;;;;;;0.10;0.10;;;17.80;99.90;;;;;;5031659;28;20526;-92
2022/11/01 11:31:13;;;;;;;0.10;0.00;;;19.00;99.90;;;;;;5028505;28;20549;-91
2022/11/01 11:33:47;;;;;;;0.10;0.00;;;20.20;99.90;;;;;;5008405;28;20446;-90
2022/11/01 11:36:13;;;;;;;0.10;0.00;;;20.30;99.90;;;;;;5019364;28;20450;-91
2022/11/01 11:38:42;;;;;;;0.10;0.10;;;20.20;99.90;;;;;;5044910;28;20477;-91
2022/11/01 11:41:09;;;;;;;0.10;0.00;;;20.90;99.90;;;;;;5018423;28;20441;-91
2022/11/01 11:43:39;;;;;;;0.10;0.00;;;21.20;99.90;;;;;;5018915;28;20446;-91
2022/11/01 11:46:23;;;;;;;0.10;0.00;;;21.90;99.90;;;;;;5018396;28;20575;-88
2022/11/01 11:49:11;;;;;;;0.10;0.00;;;22.10;99.90;;;;;;5013918;28;20571;-87
2022/11/01 11:51:38;;;;;;;0.10;0.00;;;22.00;99.90;;;;;;5035313;28;20446;-96
2022/11/01 11:54:18;;;;;;;0.10;0.00;;;21.30;99.90;;;;;;5025539;28;20467;-84
2022/11/01 11:56:45;;;;;;;0.10;0.10;;;20.90;99.90;;;;;;5011645;28;20439;-85
2022/11/01 11:59:27;;;;;;;0.10;0.00;;;21.00;99.90;;;;;;5006932;28;20520;-86
2022/11/01 12:01:56;;;;;;;0.10;0.00;;;20.20;99.90;;;;;;5028196;28;20531;-85
2022/11/01 12:04:23;;;;;;;0.10;0.00;;;19.50;99.90;;;;;;5031783;28;20940;-84
2022/11/01 12:06:49;;;;;;;0.10;0.00;;;19.00;99.90;;;;;;5036732;28;20535;-85
2022/11/01 12:09:43;;;;;;;0.10;0.07;;;18.80;99.90;;;;;;5026979;28;20856;-86
2022/11/01 12:12:21;;;;;;;0.10;0.10;;;19.00;99.90;;;;;;5026526;28;20540;-85
2022/11/01 12:14:47;;;;;;;0.10;0.07;;;18.70;99.90;;;;;;5026407;28;20480;-85
2022/11/01 12:17:48;;;;;;;0.10;0.10;;;18.30;99.90;;;;;;5015704;28;21181;-85
2022/11/01 12:20:18;;;;;;;0.10;0.10;;;18.00;99.90;;;;;;5015339;28;21021;-85
2022/11/01 12:23:05;;;;;;;0.10;0.10;;;17.50;99.90;;;;;;5019498;28;20444;-90
2022/11/01 12:25:34;;;;;;;0.10;0.10;;;17.20;99.90;;;;;;5023537;28;20446;-89
2022/11/01 12:28:27;;;;;;;0.10;0.10;;;17.10;99.90;;;;;;5025161;28;20491;-88
2022/11/01 12:30:59;;;;;;;0.10;0.00;;;18.50;99.90;;;;;;5018483;28;20541;-93
2022/11/01 12:33:32;;;;;;;0.10;0.10;;;18.50;99.90;;;;;;5020316;28;20450;-91
2022/11/01 12:35:58;;;;;;;0.10;0.10;;;17.80;99.90;;;;;;5015101;28;20450;-90
2022/11/01 12:38:36;;;;;;;0.10;0.10;;;18.10;99.90;;;;;;5012539;28;20570;-88
2022/11/01 12:41:15;;;;;;;0.10;0.00;;;19.50;99.90;;;;;;5021821;28;20448;-90
2022/11/01 12:43:57;;;;;;;0.10;0.10;;;20.40;99.90;;;;;;5030146;28;20525;-91
2022/11/01 12:46:39;;;;;;;0.00;0.00;;;21.10;99.90;;;;;;5024961;28;20438;-92
2022/11/01 12:49:32;;;;;;;0.00;0.00;;;21.40;99.90;;;;;;5026568;28;20462;-90
2022/11/01 12:52:40;;;;;;;0.00;0.00;;;21.10;99.90;;;;;;5009317;28;20508;-90
2022/11/01 12:55:27;;;;;;;0.00;0.00;;;21.30;99.90;;;;;;5028842;28;20970;-90
2022/11/01 12:57:54;;;;;;;0.00;0.00;;;21.70;99.90;;;;;;4998673;28;20447;-93
2022/11/01 13:00:20;;;;;;;0.00;0.00;;;22.30;99.90;;;;;;5049385;28;20417;-94
2022/11/01 13:03:06;;;;;;;0.00;0.00;;;23.30;99.90;;;;;;5012896;28;20442;-91
2022/11/01 13:06:20;;;;;;;0.00;0.00;;;22.70;99.90;;;;;;5025880;28;20454;-94
2022/11/01 13:09:00;;;;;;;0.00;0.00;;;23.40;99.90;;;;;;4957080;28;20489;-93
2022/11/01 13:11:34;;;;;;;0.00;0.00;;;23.70;99.90;;;;;;5006018;28;20489;-89